sensor_id;sensor_type;location;lat;lon;timestamp;P1;durP1;ratioP1;P2;durP2;ratioP2
12721;SDS011;6425;50.316;8.114;2022-07-22T00:02:48;14.80;;;10.23;;
12721;SDS011;6425;50.316;8.114;2022-07-22T00:07:49;14.07;;;10.50;;
12721;SDS011;6425;50.316;8.114;2022-07-22T00:12:49;14.77;;;11.33;;
12721;SDS011;6425;50.316;8.114;2022-07-22T00:17:51;15.17;;;11.10;;
12721;SDS011;6425;50.316;8.114;2022-07-22T00:22:52;16.70;;;12.70;;
12721;SDS011;6425;50.316;8.114;2022-07-22T00:27:52;13.43;;;11.43;;
12721;SDS011;6425;50.316;8.114;2022-07-22T00:32:54;16.30;;;11.47;;
12721;SDS011;6425;50.316;8.114;2022-07-22T00:37:55;18.33;;;11.23;;
12721;SDS011;6425;50.316;8.114;2022-07-22T00:42:55;17.43;;;12.07;;
12721;SDS011;6425;50.316;8.114;2022-07-22T00:47:57;15.83;;;11.57;;
12721;SDS011;6425;50.316;8.114;2022-07-22T00:52:58;15.37;;;12.67;;
12721;SDS011;6425;50.316;8.114;2022-07-22T00:57:58;13.10;;;11.50;;
12721;SDS011;6425;50.316;8.114;2022-07-22T01:03:00;12.60;;;10.70;;
12721;SDS011;6425;50.316;8.114;2022-07-22T01:08:03;12.63;;;11.33;;
12721;SDS011;6425;50.316;8.114;2022-07-22T01:13:05;14.73;;;11.87;;
12721;SDS011;6425;50.316;8.114;2022-07-22T01:18:07;14.77;;;11.10;;
12721;SDS011;6425;50.316;8.114;2022-07-22T01:23:09;16.83;;;12.97;;
12721;SDS011;6425;50.316;8.114;2022-07-22T01:28:10;19.10;;;13.27;;
12721;SDS011;6425;50.316;8.114;2022-07-22T01:33:10;14.63;;;13.03;;
12721;SDS011;6425;50.316;8.114;2022-07-22T01:38:13;16.43;;;13.07;;
12721;SDS011;6425;50.316;8.114;2022-07-22T01:43:17;15.00;;;13.23;;
12721;SDS011;6425;50.316;8.114;2022-07-22T01:48:20;17.87;;;12.60;;
12721;SDS011;6425;50.316;8.114;2022-07-22T01:53:24;15.00;;;12.63;;
12721;SDS011;6425;50.316;8.114;2022-07-22T01:58:25;17.10;;;13.87;;
12721;SDS011;6425;50.316;8.114;2022-07-22T02:03:25;19.30;;;13.53;;
12721;SDS011;6425;50.316;8.114;2022-07-22T02:08:30;11.57;;;10.37;;
12721;SDS011;6425;50.316;8.114;2022-07-22T02:13:53;11.77;;;9.77;;
12721;SDS011;6425;50.316;8.114;2022-07-22T02:18:54;14.10;;;10.73;;
12721;SDS011;6425;50.316;8.114;2022-07-22T02:23:56;12.97;;;10.17;;
12721;SDS011;6425;50.316;8.114;2022-07-22T02:28:57;14.17;;;10.23;;
12721;SDS011;6425;50.316;8.114;2022-07-22T02:33:59;18.43;;;11.13;;
12721;SDS011;6425;50.316;8.114;2022-07-22T02:39:03;15.57;;;11.50;;
12721;SDS011;6425;50.316;8.114;2022-07-22T02:44:05;14.40;;;11.40;;
12721;SDS011;6425;50.316;8.114;2022-07-22T02:49:06;13.80;;;10.37;;
12721;SDS011;6425;50.316;8.114;2022-07-22T02:54:08;18.70;;;11.63;;
12721;SDS011;6425;50.316;8.114;2022-07-22T02:59:08;15.30;;;11.83;;
12721;SDS011;6425;50.316;8.114;2022-07-22T03:04:09;16.37;;;11.87;;
12721;SDS011;6425;50.316;8.114;2022-07-22T03:09:12;15.30;;;12.77;;
12721;SDS011;6425;50.316;8.114;2022-07-22T03:14:17;16.70;;;12.43;;
12721;SDS011;6425;50.316;8.114;2022-07-22T03:19:17;20.33;;;13.63;;
12721;SDS011;6425;50.316;8.114;2022-07-22T03:24:23;20.13;;;14.30;;
12721;SDS011;6425;50.316;8.114;2022-07-22T03:29:24;21.67;;;14.70;;
12721;SDS011;6425;50.316;8.114;2022-07-22T03:34:25;19.63;;;13.80;;
12721;SDS011;6425;50.316;8.114;2022-07-22T03:39:34;17.10;;;13.83;;
12721;SDS011;6425;50.316;8.114;2022-07-22T03:44:35;20.90;;;15.40;;
12721;SDS011;6425;50.316;8.114;2022-07-22T03:49:36;22.73;;;15.20;;
12721;SDS011;6425;50.316;8.114;2022-07-22T03:54:39;20.53;;;15.10;;
12721;SDS011;6425;50.316;8.114;2022-07-22T03:59:40;21.80;;;15.40;;
12721;SDS011;6425;50.316;8.114;2022-07-22T04:04:41;23.87;;;15.87;;
12721;SDS011;6425;50.316;8.114;2022-07-22T04:09:43;24.20;;;17.07;;
12721;SDS011;6425;50.316;8.114;2022-07-22T04:14:43;23.83;;;17.13;;
12721;SDS011;6425;50.316;8.114;2022-07-22T04:19:44;28.90;;;17.73;;
12721;SDS011;6425;50.316;8.114;2022-07-22T04:24:56;21.87;;;15.20;;
12721;SDS011;6425;50.316;8.114;2022-07-22T04:29:57;26.27;;;17.50;;
12721;SDS011;6425;50.316;8.114;2022-07-22T04:34:58;25.20;;;17.43;;
12721;SDS011;6425;50.316;8.114;2022-07-22T04:40:01;25.93;;;18.43;;
12721;SDS011;6425;50.316;8.114;2022-07-22T04:45:03;27.20;;;17.83;;
12721;SDS011;6425;50.316;8.114;2022-07-22T04:50:05;24.47;;;16.30;;
12721;SDS011;6425;50.316;8.114;2022-07-22T04:55:08;26.33;;;18.90;;
12721;SDS011;6425;50.316;8.114;2022-07-22T05:00:10;22.93;;;16.60;;
12721;SDS011;6425;50.316;8.114;2022-07-22T05:05:21;23.37;;;17.00;;
12721;SDS011;6425;50.316;8.114;2022-07-22T05:10:23;21.80;;;14.60;;
12721;SDS011;6425;50.316;8.114;2022-07-22T05:15:24;19.23;;;14.40;;
12721;SDS011;6425;50.316;8.114;2022-07-22T05:20:25;19.37;;;15.53;;
12721;SDS011;6425;50.316;8.114;2022-07-22T05:25:28;20.30;;;15.57;;
12721;SDS011;6425;50.316;8.114;2022-07-22T05:30:28;21.37;;;16.30;;
12721;SDS011;6425;50.316;8.114;2022-07-22T05:35:29;19.37;;;14.53;;
12721;SDS011;6425;50.316;8.114;2022-07-22T05:40:31;23.20;;;16.07;;
12721;SDS011;6425;50.316;8.114;2022-07-22T05:45:32;24.23;;;17.10;;
12721;SDS011;6425;50.316;8.114;2022-07-22T05:50:33;24.17;;;17.90;;
12721;SDS011;6425;50.316;8.114;2022-07-22T05:55:35;24.30;;;17.30;;
12721;SDS011;6425;50.316;8.114;2022-07-22T06:00:35;22.23;;;15.83;;
12721;SDS011;6425;50.316;8.114;2022-07-22T06:05:36;23.20;;;16.57;;
12721;SDS011;6425;50.316;8.114;2022-07-22T06:10:39;21.17;;;15.83;;
12721;SDS011;6425;50.316;8.114;2022-07-22T06:15:39;19.90;;;15.23;;
12721;SDS011;6425;50.316;8.114;2022-07-22T06:20:40;19.37;;;15.00;;
12721;SDS011;6425;50.316;8.114;2022-07-22T06:25:43;21.50;;;14.83;;
12721;SDS011;6425;50.316;8.114;2022-07-22T06:30:51;18.80;;;13.30;;
12721;SDS011;6425;50.316;8.114;2022-07-22T06:35:53;13.33;;;11.33;;
12721;SDS011;6425;50.316;8.114;2022-07-22T06:40:55;15.27;;;12.33;;
12721;SDS011;6425;50.316;8.114;2022-07-22T06:46:14;17.27;;;11.73;;
12721;SDS011;6425;50.316;8.114;2022-07-22T06:51:25;9.13;;;7.60;;
12721;SDS011;6425;50.316;8.114;2022-07-22T06:56:27;9.80;;;7.70;;
12721;SDS011;6425;50.316;8.114;2022-07-22T07:01:28;12.37;;;8.03;;
12721;SDS011;6425;50.316;8.114;2022-07-22T07:06:32;12.10;;;7.87;;
12721;SDS011;6425;50.316;8.114;2022-07-22T07:11:34;9.60;;;7.63;;
12721;SDS011;6425;50.316;8.114;2022-07-22T07:16:40;9.83;;;8.53;;
12721;SDS011;6425;50.316;8.114;2022-07-22T07:21:40;9.00;;;8.10;;
12721;SDS011;6425;50.316;8.114;2022-07-22T07:26:42;11.80;;;8.87;;
12721;SDS011;6425;50.316;8.114;2022-07-22T07:31:43;9.97;;;8.00;;
12721;SDS011;6425;50.316;8.114;2022-07-22T07:36:48;8.30;;;6.33;;
12721;SDS011;6425;50.316;8.114;2022-07-22T07:41:51;7.93;;;6.70;;
12721;SDS011;6425;50.316;8.114;2022-07-22T07:46:52;8.10;;;7.30;;
12721;SDS011;6425;50.316;8.114;2022-07-22T07:51:52;9.13;;;8.23;;
12721;SDS011;6425;50.316;8.114;2022-07-22T07:56:55;9.27;;;8.20;;
12721;SDS011;6425;50.316;8.114;2022-07-22T08:01:56;9.37;;;7.93;;
12721;SDS011;6425;50.316;8.114;2022-07-22T08:06:57;10.10;;;7.83;;
12721;SDS011;6425;50.316;8.114;2022-07-22T08:11:59;9.70;;;7.43;;
12721;SDS011;6425;50.316;8.114;2022-07-22T08:17:14;7.50;;;6.70;;
12721;SDS011;6425;50.316;8.114;2022-07-22T08:22:15;8.40;;;7.60;;
12721;SDS011;6425;50.316;8.114;2022-07-22T08:27:18;9.00;;;7.53;;
12721;SDS011;6425;50.316;8.114;2022-07-22T08:32:19;8.73;;;7.83;;
12721;SDS011;6425;50.316;8.114;2022-07-22T08:37:20;10.63;;;6.20;;
12721;SDS011;6425;50.316;8.114;2022-07-22T08:42:22;10.23;;;7.13;;
12721;SDS011;6425;50.316;8.114;2022-07-22T08:47:23;8.43;;;7.23;;
12721;SDS011;6425;50.316;8.114;2022-07-22T08:52:44;7.50;;;6.80;;
12721;SDS011;6425;50.316;8.114;2022-07-22T08:57:47;7.60;;;6.80;;
12721;SDS011;6425;50.316;8.114;2022-07-22T09:02:48;9.70;;;8.00;;
12721;SDS011;6425;50.316;8.114;2022-07-22T09:07:49;7.23;;;6.53;;
12721;SDS011;6425;50.316;8.114;2022-07-22T09:12:59;7.67;;;6.93;;
12721;SDS011;6425;50.316;8.114;2022-07-22T09:18:16;8.60;;;7.30;;
12721;SDS011;6425;50.316;8.114;2022-07-22T09:23:52;8.70;;;7.03;;
12721;SDS011;6425;50.316;8.114;2022-07-22T09:28:54;8.47;;;7.13;;
12721;SDS011;6425;50.316;8.114;2022-07-22T09:34:02;8.43;;;6.53;;
12721;SDS011;6425;50.316;8.114;2022-07-22T09:39:04;7.07;;;6.37;;
12721;SDS011;6425;50.316;8.114;2022-07-22T09:44:26;7.90;;;6.27;;
12721;SDS011;6425;50.316;8.114;2022-07-22T09:49:31;6.60;;;5.67;;
12721;SDS011;6425;50.316;8.114;2022-07-22T09:54:52;7.63;;;5.40;;
12721;SDS011;6425;50.316;8.114;2022-07-22T09:59:54;6.87;;;5.80;;
12721;SDS011;6425;50.316;8.114;2022-07-22T10:05:14;7.13;;;5.77;;
12721;SDS011;6425;50.316;8.114;2022-07-22T10:10:17;7.83;;;6.97;;
12721;SDS011;6425;50.316;8.114;2022-07-22T10:15:21;6.03;;;5.53;;
12721;SDS011;6425;50.316;8.114;2022-07-22T10:20:24;6.57;;;5.60;;
12721;SDS011;6425;50.316;8.114;2022-07-22T10:25:27;10.33;;;9.37;;
12721;SDS011;6425;50.316;8.114;2022-07-22T10:30:32;10.83;;;9.83;;
12721;SDS011;6425;50.316;8.114;2022-07-22T10:35:34;10.30;;;9.50;;
12721;SDS011;6425;50.316;8.114;2022-07-22T10:40:45;10.10;;;9.10;;
12721;SDS011;6425;50.316;8.114;2022-07-22T10:45:50;10.60;;;9.70;;
12721;SDS011;6425;50.316;8.114;2022-07-22T10:50:54;15.40;;;9.40;;
12721;SDS011;6425;50.316;8.114;2022-07-22T10:56:07;9.60;;;8.80;;
12721;SDS011;6425;50.316;8.114;2022-07-22T11:01:14;9.37;;;8.67;;
12721;SDS011;6425;50.316;8.114;2022-07-22T11:06:17;9.67;;;8.73;;
12721;SDS011;6425;50.316;8.114;2022-07-22T11:11:33;9.43;;;8.30;;
12721;SDS011;6425;50.316;8.114;2022-07-22T11:16:40;8.43;;;6.93;;
12721;SDS011;6425;50.316;8.114;2022-07-22T11:21:41;7.73;;;7.07;;
12721;SDS011;6425;50.316;8.114;2022-07-22T11:26:50;9.20;;;6.67;;
12721;SDS011;6425;50.316;8.114;2022-07-22T11:31:57;6.57;;;6.07;;
12721;SDS011;6425;50.316;8.114;2022-07-22T11:36:58;7.60;;;6.80;;
12721;SDS011;6425;50.316;8.114;2022-07-22T11:41:59;7.83;;;7.13;;
12721;SDS011;6425;50.316;8.114;2022-07-22T11:47:01;8.03;;;7.40;;
12721;SDS011;6425;50.316;8.114;2022-07-22T11:52:03;10.63;;;7.97;;
12721;SDS011;6425;50.316;8.114;2022-07-22T11:57:04;8.13;;;7.40;;
12721;SDS011;6425;50.316;8.114;2022-07-22T12:02:07;8.43;;;7.57;;
12721;SDS011;6425;50.316;8.114;2022-07-22T12:07:10;8.83;;;7.93;;
12721;SDS011;6425;50.316;8.114;2022-07-22T12:12:11;8.70;;;7.90;;
12721;SDS011;6425;50.316;8.114;2022-07-22T12:17:13;8.47;;;7.47;;
12721;SDS011;6425;50.316;8.114;2022-07-22T12:22:19;10.10;;;8.57;;
12721;SDS011;6425;50.316;8.114;2022-07-22T12:27:21;8.83;;;8.13;;
12721;SDS011;6425;50.316;8.114;2022-07-22T12:32:25;8.90;;;8.00;;
12721;SDS011;6425;50.316;8.114;2022-07-22T12:37:28;9.57;;;8.67;;
12721;SDS011;6425;50.316;8.114;2022-07-22T12:42:31;8.93;;;8.20;;
12721;SDS011;6425;50.316;8.114;2022-07-22T12:47:44;9.57;;;8.77;;
12721;SDS011;6425;50.316;8.114;2022-07-22T12:52:48;8.80;;;7.97;;
12721;SDS011;6425;50.316;8.114;2022-07-22T12:57:49;9.47;;;8.57;;
12721;SDS011;6425;50.316;8.114;2022-07-22T13:02:51;9.10;;;8.07;;
12721;SDS011;6425;50.316;8.114;2022-07-22T13:07:54;8.43;;;7.53;;
12721;SDS011;6425;50.316;8.114;2022-07-22T13:12:54;9.83;;;7.37;;
12721;SDS011;6425;50.316;8.114;2022-07-22T13:17:57;8.83;;;7.97;;
12721;SDS011;6425;50.316;8.114;2022-07-22T13:22:57;9.73;;;8.57;;
12721;SDS011;6425;50.316;8.114;2022-07-22T13:27:58;8.20;;;7.50;;
12721;SDS011;6425;50.316;8.114;2022-07-22T13:33:00;8.47;;;7.27;;
12721;SDS011;6425;50.316;8.114;2022-07-22T13:38:01;8.60;;;7.80;;
12721;SDS011;6425;50.316;8.114;2022-07-22T13:43:01;8.17;;;7.37;;
12721;SDS011;6425;50.316;8.114;2022-07-22T13:48:05;8.90;;;8.10;;
12721;SDS011;6425;50.316;8.114;2022-07-22T13:53:05;8.63;;;7.83;;
12721;SDS011;6425;50.316;8.114;2022-07-22T13:58:06;9.20;;;8.33;;
12721;SDS011;6425;50.316;8.114;2022-07-22T14:03:08;9.30;;;8.50;;
12721;SDS011;6425;50.316;8.114;2022-07-22T14:08:09;9.00;;;8.10;;
12721;SDS011;6425;50.316;8.114;2022-07-22T14:13:09;10.17;;;8.83;;
12721;SDS011;6425;50.316;8.114;2022-07-22T14:18:11;9.87;;;8.27;;
12721;SDS011;6425;50.316;8.114;2022-07-22T14:23:12;8.83;;;7.93;;
12721;SDS011;6425;50.316;8.114;2022-07-22T14:28:13;8.97;;;7.77;;
12721;SDS011;6425;50.316;8.114;2022-07-22T14:33:15;10.53;;;8.07;;
12721;SDS011;6425;50.316;8.114;2022-07-22T14:38:15;8.70;;;7.90;;
12721;SDS011;6425;50.316;8.114;2022-07-22T14:43:16;8.57;;;7.87;;
12721;SDS011;6425;50.316;8.114;2022-07-22T14:48:18;8.83;;;8.03;;
12721;SDS011;6425;50.316;8.114;2022-07-22T14:53:18;9.00;;;8.10;;
12721;SDS011;6425;50.316;8.114;2022-07-22T14:58:19;8.27;;;7.67;;
12721;SDS011;6425;50.316;8.114;2022-07-22T15:03:21;8.77;;;7.90;;
12721;SDS011;6425;50.316;8.114;2022-07-22T15:08:22;9.83;;;8.07;;
12721;SDS011;6425;50.316;8.114;2022-07-22T15:13:22;8.87;;;8.17;;
12721;SDS011;6425;50.316;8.114;2022-07-22T15:18:24;9.00;;;8.00;;
12721;SDS011;6425;50.316;8.114;2022-07-22T15:23:25;8.40;;;7.70;;
12721;SDS011;6425;50.316;8.114;2022-07-22T15:28:26;8.83;;;7.97;;
12721;SDS011;6425;50.316;8.114;2022-07-22T15:33:29;10.53;;;8.70;;
12721;SDS011;6425;50.316;8.114;2022-07-22T15:38:29;8.87;;;8.00;;
12721;SDS011;6425;50.316;8.114;2022-07-22T15:43:30;8.87;;;8.10;;
12721;SDS011;6425;50.316;8.114;2022-07-22T15:48:32;9.10;;;8.23;;
12721;SDS011;6425;50.316;8.114;2022-07-22T15:53:32;8.97;;;8.10;;
12721;SDS011;6425;50.316;8.114;2022-07-22T15:58:33;9.20;;;8.30;;
12721;SDS011;6425;50.316;8.114;2022-07-22T16:03:34;8.73;;;8.03;;
12721;SDS011;6425;50.316;8.114;2022-07-22T16:08:35;8.70;;;7.90;;
12721;SDS011;6425;50.316;8.114;2022-07-22T16:13:36;8.00;;;7.30;;
12721;SDS011;6425;50.316;8.114;2022-07-22T16:18:38;8.97;;;7.70;;
12721;SDS011;6425;50.316;8.114;2022-07-22T16:23:38;9.00;;;8.23;;
12721;SDS011;6425;50.316;8.114;2022-07-22T16:28:39;9.23;;;7.70;;
12721;SDS011;6425;50.316;8.114;2022-07-22T16:33:41;8.73;;;7.77;;
12721;SDS011;6425;50.316;8.114;2022-07-22T16:38:41;9.30;;;7.17;;
12721;SDS011;6425;50.316;8.114;2022-07-22T16:43:42;7.70;;;7.00;;
12721;SDS011;6425;50.316;8.114;2022-07-22T16:48:44;8.77;;;7.90;;
12721;SDS011;6425;50.316;8.114;2022-07-22T16:53:44;10.63;;;7.53;;
12721;SDS011;6425;50.316;8.114;2022-07-22T16:58:44;6.77;;;6.00;;
12721;SDS011;6425;50.316;8.114;2022-07-22T17:03:46;7.00;;;6.30;;
12721;SDS011;6425;50.316;8.114;2022-07-22T17:08:47;14.23;;;6.40;;
12721;SDS011;6425;50.316;8.114;2022-07-22T17:13:47;13.23;;;6.13;;
12721;SDS011;6425;50.316;8.114;2022-07-22T17:18:49;11.90;;;5.93;;
12721;SDS011;6425;50.316;8.114;2022-07-22T17:23:50;11.60;;;5.70;;
12721;SDS011;6425;50.316;8.114;2022-07-22T17:28:50;21.67;;;6.43;;
12721;SDS011;6425;50.316;8.114;2022-07-22T17:33:53;7.73;;;6.10;;
12721;SDS011;6425;50.316;8.114;2022-07-22T17:38:54;8.80;;;5.63;;
12721;SDS011;6425;50.316;8.114;2022-07-22T17:43:54;11.53;;;6.00;;
12721;SDS011;6425;50.316;8.114;2022-07-22T17:48:56;7.00;;;6.10;;
12721;SDS011;6425;50.316;8.114;2022-07-22T17:53:57;8.63;;;5.83;;
12721;SDS011;6425;50.316;8.114;2022-07-22T17:58:57;6.10;;;5.60;;
12721;SDS011;6425;50.316;8.114;2022-07-22T18:04:00;8.17;;;5.97;;
12721;SDS011;6425;50.316;8.114;2022-07-22T18:09:00;9.00;;;5.30;;
12721;SDS011;6425;50.316;8.114;2022-07-22T18:14:01;20.50;;;7.10;;
12721;SDS011;6425;50.316;8.114;2022-07-22T18:19:03;9.53;;;5.43;;
12721;SDS011;6425;50.316;8.114;2022-07-22T18:24:04;10.17;;;5.93;;
12721;SDS011;6425;50.316;8.114;2022-07-22T18:29:05;14.07;;;6.70;;
12721;SDS011;6425;50.316;8.114;2022-07-22T18:34:07;10.13;;;6.00;;
12721;SDS011;6425;50.316;8.114;2022-07-22T18:39:07;9.27;;;6.00;;
12721;SDS011;6425;50.316;8.114;2022-07-22T18:44:08;14.60;;;6.67;;
12721;SDS011;6425;50.316;8.114;2022-07-22T18:49:10;17.90;;;6.23;;
12721;SDS011;6425;50.316;8.114;2022-07-22T18:54:10;30.17;;;7.53;;
12721;SDS011;6425;50.316;8.114;2022-07-22T18:59:11;25.07;;;7.73;;
12721;SDS011;6425;50.316;8.114;2022-07-22T19:04:13;20.07;;;7.50;;
12721;SDS011;6425;50.316;8.114;2022-07-22T19:09:13;12.50;;;7.43;;
12721;SDS011;6425;50.316;8.114;2022-07-22T19:14:14;18.90;;;7.37;;
12721;SDS011;6425;50.316;8.114;2022-07-22T19:19:15;18.23;;;7.10;;
12721;SDS011;6425;50.316;8.114;2022-07-22T19:24:16;14.50;;;6.77;;
12721;SDS011;6425;50.316;8.114;2022-07-22T19:29:16;7.23;;;6.20;;
12721;SDS011;6425;50.316;8.114;2022-07-22T19:34:18;11.43;;;7.30;;
12721;SDS011;6425;50.316;8.114;2022-07-22T19:39:19;8.27;;;6.50;;
12721;SDS011;6425;50.316;8.114;2022-07-22T19:44:19;9.83;;;6.97;;
12721;SDS011;6425;50.316;8.114;2022-07-22T19:49:22;13.60;;;7.70;;
12721;SDS011;6425;50.316;8.114;2022-07-22T19:54:22;19.40;;;8.03;;
12721;SDS011;6425;50.316;8.114;2022-07-22T19:59:23;30.07;;;8.53;;
12721;SDS011;6425;50.316;8.114;2022-07-22T20:04:27;37.70;;;9.90;;
12721;SDS011;6425;50.316;8.114;2022-07-22T20:09:28;40.27;;;10.67;;
12721;SDS011;6425;50.316;8.114;2022-07-22T20:14:28;32.97;;;10.00;;
12721;SDS011;6425;50.316;8.114;2022-07-22T20:19:30;27.50;;;8.37;;
12721;SDS011;6425;50.316;8.114;2022-07-22T20:24:31;55.70;;;10.20;;
12721;SDS011;6425;50.316;8.114;2022-07-22T20:29:32;43.93;;;10.90;;
12721;SDS011;6425;50.316;8.114;2022-07-22T20:34:34;17.13;;;7.87;;
12721;SDS011;6425;50.316;8.114;2022-07-22T20:39:34;13.67;;;7.90;;
12721;SDS011;6425;50.316;8.114;2022-07-22T20:44:35;32.57;;;9.07;;
12721;SDS011;6425;50.316;8.114;2022-07-22T20:49:37;25.87;;;8.83;;
12721;SDS011;6425;50.316;8.114;2022-07-22T20:54:37;20.40;;;9.40;;
12721;SDS011;6425;50.316;8.114;2022-07-22T20:59:38;24.17;;;7.87;;
12721;SDS011;6425;50.316;8.114;2022-07-22T21:04:40;15.30;;;8.27;;
12721;SDS011;6425;50.316;8.114;2022-07-22T21:09:40;22.13;;;8.30;;
12721;SDS011;6425;50.316;8.114;2022-07-22T21:14:41;16.80;;;8.67;;
12721;SDS011;6425;50.316;8.114;2022-07-22T21:19:43;12.10;;;7.77;;
12721;SDS011;6425;50.316;8.114;2022-07-22T21:24:43;8.47;;;7.07;;
12721;SDS011;6425;50.316;8.114;2022-07-22T21:29:44;11.20;;;7.30;;
12721;SDS011;6425;50.316;8.114;2022-07-22T21:34:45;11.43;;;7.17;;
12721;SDS011;6425;50.316;8.114;2022-07-22T21:39:46;12.10;;;6.97;;
12721;SDS011;6425;50.316;8.114;2022-07-22T21:44:46;9.30;;;6.87;;
12721;SDS011;6425;50.316;8.114;2022-07-22T21:49:48;8.57;;;6.47;;
12721;SDS011;6425;50.316;8.114;2022-07-22T21:54:49;13.80;;;6.93;;
12721;SDS011;6425;50.316;8.114;2022-07-22T21:59:49;8.77;;;7.20;;
12721;SDS011;6425;50.316;8.114;2022-07-22T22:04:51;7.50;;;6.60;;
12721;SDS011;6425;50.316;8.114;2022-07-22T22:09:52;9.87;;;6.77;;
12721;SDS011;6425;50.316;8.114;2022-07-22T22:14:52;11.97;;;6.93;;
12721;SDS011;6425;50.316;8.114;2022-07-22T22:19:55;7.63;;;6.70;;
12721;SDS011;6425;50.316;8.114;2022-07-22T22:24:55;8.23;;;6.60;;
12721;SDS011;6425;50.316;8.114;2022-07-22T22:29:56;10.63;;;7.57;;
12721;SDS011;6425;50.316;8.114;2022-07-22T22:34:58;7.90;;;7.10;;
12721;SDS011;6425;50.316;8.114;2022-07-22T22:39:58;7.53;;;6.67;;
12721;SDS011;6425;50.316;8.114;2022-07-22T22:44:59;8.07;;;6.80;;
12721;SDS011;6425;50.316;8.114;2022-07-22T22:50:01;8.70;;;7.20;;
12721;SDS011;6425;50.316;8.114;2022-07-22T22:55:01;9.60;;;7.03;;
12721;SDS011;6425;50.316;8.114;2022-07-22T23:00:02;8.13;;;7.33;;
12721;SDS011;6425;50.316;8.114;2022-07-22T23:05:06;7.80;;;7.10;;
12721;SDS011;6425;50.316;8.114;2022-07-22T23:10:08;9.57;;;7.43;;
12721;SDS011;6425;50.316;8.114;2022-07-22T23:15:09;14.23;;;7.40;;
12721;SDS011;6425;50.316;8.114;2022-07-22T23:20:11;10.77;;;7.87;;
12721;SDS011;6425;50.316;8.114;2022-07-22T23:25:11;10.93;;;8.20;;
12721;SDS011;6425;50.316;8.114;2022-07-22T23:30:12;9.07;;;8.17;;
12721;SDS011;6425;50.316;8.114;2022-07-22T23:35:14;11.70;;;9.50;;
12721;SDS011;6425;50.316;8.114;2022-07-22T23:40:15;11.23;;;9.70;;
12721;SDS011;6425;50.316;8.114;2022-07-22T23:45:15;14.50;;;10.47;;
12721;SDS011;6425;50.316;8.114;2022-07-22T23:50:17;11.53;;;10.13;;
12721;SDS011;6425;50.316;8.114;2022-07-22T23:55:18;14.73;;;10.80;;
